Time;durP1;ratioP1;P1;durP2;ratioP2;P2;SDS_P1;SDS_P2;PMS_P1;PMS_P2;Temp;Humidity;BMP_temperature;BMP_pressure;BME280_temperature;BME280_humidity;BME280_pressure;Samples;Min_cycle;Max_cycle;Signal;HPM_P1;HPM_P2
2022/09/06 00:01:00;;;;;;;16.88;5.03;;;;;;;14.19;100.00;98286.09;5086097;27;20034;-79
2022/09/06 00:03:28;;;;;;;9.80;5.03;;;;;;;14.24;100.00;98296.56;5102729;27;20039;-78
2022/09/06 00:05:54;;;;;;;9.73;5.00;;;;;;;14.22;100.00;98290.41;5106981;27;20028;-79
2022/09/06 00:08:19;;;;;;;7.28;4.63;;;;;;;14.17;100.00;98289.84;5111665;27;20521;-80
2022/09/06 00:10:45;;;;;;;13.10;4.97;;;;;;;14.11;100.00;98286.59;5111571;27;20092;-79
2022/09/06 00:13:10;;;;;;;11.57;5.18;;;;;;;14.10;100.00;98295.63;5091294;27;20033;-79
2022/09/06 00:15:36;;;;;;;9.65;5.00;;;;;;;13.96;100.00;98289.41;5095175;27;20035;-79
2022/09/06 00:18:04;;;;;;;7.78;5.05;;;;;;;14.04;100.00;98297.84;5079640;28;20487;-79
2022/09/06 00:20:30;;;;;;;9.75;4.90;;;;;;;13.97;100.00;98301.88;5091730;27;20051;-79
2022/09/06 00:23:01;;;;;;;7.85;5.43;;;;;;;13.89;100.00;98305.06;5100960;27;20026;-79
2022/09/06 00:25:28;;;;;;;8.88;4.40;;;;;;;13.93;100.00;98303.03;5121917;27;20031;-79
2022/09/06 00:27:58;;;;;;;11.18;4.70;;;;;;;13.86;100.00;98301.69;5093588;27;20019;-79
2022/09/06 00:30:25;;;;;;;7.35;4.65;;;;;;;13.90;100.00;98301.41;5082780;28;20093;-80
2022/09/06 00:32:52;;;;;;;7.90;5.10;;;;;;;13.91;100.00;98302.25;5114257;27;20122;-78
2022/09/06 00:35:18;;;;;;;8.88;4.40;;;;;;;13.95;100.00;98309.19;5131744;27;20023;-80
2022/09/06 00:37:43;;;;;;;9.77;5.20;;;;;;;13.95;100.00;98303.81;5110800;27;20030;-79
2022/09/06 00:40:09;;;;;;;15.73;4.85;;;;;;;13.88;100.00;98299.75;5084294;27;20034;-79
2022/09/06 00:42:36;;;;;;;9.45;4.40;;;;;;;13.89;100.00;98305.06;5112478;27;20103;-79
2022/09/06 00:45:02;;;;;;;10.88;4.82;;;;;;;13.85;100.00;98302.66;5113009;27;20106;-79
2022/09/06 00:47:28;;;;;;;10.63;4.65;;;;;;;13.86;100.00;98301.69;5108553;27;20506;-79
2022/09/06 00:49:55;;;;;;;7.90;4.55;;;;;;;13.84;100.00;98306.31;5106924;27;20057;-79
2022/09/06 00:52:21;;;;;;;10.18;4.88;;;;;;;13.86;100.00;98299.00;5113112;27;20483;-79
2022/09/06 00:54:53;;;;;;;7.30;4.18;;;;;;;13.80;100.00;98300.25;5119907;28;20019;-79
2022/09/06 00:57:18;;;;;;;7.30;4.35;;;;;;;13.72;100.00;98301.72;5123902;28;20113;-79
2022/09/06 00:59:45;;;;;;;8.00;4.65;;;;;;;13.68;100.00;98305.53;5105277;28;20454;-80
2022/09/06 01:02:10;;;;;;;8.38;4.22;;;;;;;13.70;100.00;98299.09;5119967;28;20024;-79
2022/09/06 01:04:38;;;;;;;10.65;4.50;;;;;;;13.71;100.00;98306.22;5108664;28;20034;-79
2022/09/06 01:07:41;;;;;;;12.23;4.85;;;;;;;13.71;100.00;98295.47;5091423;28;20027;-79
2022/09/06 01:10:18;;;;;;;6.75;4.45;;;;;;;13.71;100.00;98302.66;5091665;28;20115;-79
2022/09/06 01:13:15;;;;;;;12.63;4.93;;;;;;;13.75;100.00;98301.50;5111818;28;20031;-79
2022/09/06 01:16:05;;;;;;;10.80;4.47;;;;;;;13.64;100.00;98304.00;5122153;27;20051;-79
2022/09/06 01:18:58;;;;;;;8.57;4.90;;;;;;;13.65;100.00;98300.34;5123166;28;20475;-79
2022/09/06 01:21:26;;;;;;;10.68;5.53;;;;;;;13.63;100.00;98308.50;5122666;27;20040;-79
2022/09/06 01:23:58;;;;;;;10.10;5.70;;;;;;;13.70;100.00;98308.97;5126067;28;20027;-78
2022/09/06 01:26:29;;;;;;;9.45;5.70;;;;;;;13.71;100.00;98310.72;5120707;28;20079;-79
2022/09/06 01:28:56;;;;;;;10.57;5.78;;;;;;;13.70;100.00;98306.28;5117130;28;20089;-78
2022/09/06 01:31:24;;;;;;;11.50;5.78;;;;;;;13.76;100.00;98311.28;5079144;28;20118;-79
2022/09/06 01:34:05;;;;;;;13.52;6.05;;;;;;;13.74;100.00;98308.72;5101966;28;20479;-80
2022/09/06 01:36:59;;;;;;;12.30;5.95;;;;;;;13.76;100.00;98300.53;5100480;28;20032;-79
2022/09/06 01:39:30;;;;;;;13.88;5.88;;;;;;;13.63;100.00;98291.53;5102990;28;20050;-79
2022/09/06 01:41:57;;;;;;;12.27;6.10;;;;;;;13.62;100.00;98287.97;5084866;28;20549;-79
2022/09/06 01:44:25;;;;;;;11.38;6.60;;;;;;;13.68;100.00;98297.47;5110303;28;20030;-79
2022/09/06 01:47:02;;;;;;;11.07;6.13;;;;;;;13.71;100.00;98299.97;5084806;28;20027;-79
2022/09/06 01:50:06;;;;;;;9.73;5.97;;;;;;;13.66;100.00;98292.19;5113913;28;20051;-79
2022/09/06 01:52:58;;;;;;;12.48;6.45;;;;;;;13.64;100.00;98288.72;5067374;27;20066;-79
2022/09/06 01:55:50;;;;;;;9.50;5.13;;;;;;;13.71;100.00;98295.47;5100085;28;20059;-79
2022/09/06 01:58:34;;;;;;;10.00;5.75;;;;;;;13.75;100.00;98294.28;5105284;28;20490;-79
2022/09/06 02:01:26;;;;;;;12.70;6.32;;;;;;;13.68;100.00;98289.41;5120657;27;20019;-78
2022/09/06 02:04:15;;;;;;;7.45;5.30;;;;;;;13.53;100.00;98284.00;5110278;27;20035;-79
2022/09/06 02:06:45;;;;;;;7.57;5.20;;;;;;;13.61;100.00;98290.75;5127173;27;20027;-80
2022/09/06 02:09:15;;;;;;;7.47;4.85;;;;;;;13.60;100.00;98291.72;5089242;27;20470;-80
2022/09/06 02:11:48;;;;;;;10.40;4.93;;;;;;;13.66;100.00;98288.66;5109502;27;20103;-80
2022/09/06 02:14:20;;;;;;;9.82;5.47;;;;;;;13.67;100.00;98282.28;5085450;28;20046;-79
2022/09/06 02:16:48;;;;;;;7.00;4.88;;;;;;;13.56;100.00;98274.91;5083905;28;20509;-79
2022/09/06 02:19:42;;;;;;;13.27;5.35;;;;;;;13.51;100.00;98275.19;5111366;27;20027;-77
2022/09/06 02:22:09;;;;;;;8.25;5.15;;;;;;;13.46;100.00;98285.38;5110167;27;20096;-78
2022/09/06 02:24:39;;;;;;;12.45;5.50;;;;;;;13.39;100.00;98273.25;5071780;27;20021;-77
2022/09/06 02:27:05;;;;;;;12.20;6.32;;;;;;;13.44;100.00;98283.75;5088191;27;20043;-79
2022/09/06 02:29:31;;;;;;;17.48;5.45;;;;;;;13.38;100.00;98279.56;5088428;28;20085;-79
2022/09/06 02:32:07;;;;;;;7.57;4.90;;;;;;;13.41;100.00;98282.06;5110879;27;20449;-78
2022/09/06 02:34:36;;;;;;;8.15;4.80;;;;;;;13.32;100.00;98276.44;5101614;28;20115;-78
2022/09/06 02:37:02;;;;;;;12.52;5.22;;;;;;;13.23;100.00;98280.50;5087547;27;20026;-80
2022/09/06 02:39:27;;;;;;;11.68;5.53;;;;;;;13.20;100.00;98283.38;5103902;27;20027;-80
2022/09/06 02:41:53;;;;;;;10.27;5.38;;;;;;;13.08;100.00;98276.06;5112276;27;20124;-80
2022/09/06 02:44:19;;;;;;;8.13;5.18;;;;;;;13.14;100.00;98286.44;5102918;28;20063;-78
2022/09/06 02:46:44;;;;;;;10.20;5.15;;;;;;;13.13;100.00;98282.06;5103733;27;20031;-78
2022/09/06 02:49:10;;;;;;;10.68;5.07;;;;;;;13.07;100.00;98292.28;5100442;27;20027;-77
2022/09/06 02:51:39;;;;;;;10.82;4.82;;;;;;;13.01;100.00;98293.50;5118168;27;20038;-79
2022/09/06 02:54:05;;;;;;;8.52;4.97;;;;;;;12.97;100.00;98287.44;5112652;27;20095;-79
2022/09/06 02:56:32;;;;;;;8.55;5.45;;;;;;;12.90;100.00;98293.25;5090997;27;20110;-79
2022/09/06 02:58:58;;;;;;;10.27;5.65;;;;;;;12.90;100.00;98293.25;5111730;27;20049;-79
2022/09/06 03:01:24;;;;;;;13.32;5.03;;;;;;;12.78;100.00;98294.00;5110712;27;20030;-79
2022/09/06 03:03:50;;;;;;;9.52;4.90;;;;;;;12.75;100.00;98300.41;5097865;27;20020;-78
2022/09/06 03:06:15;;;;;;;12.48;5.40;;;;;;;12.77;100.00;98284.19;5104268;27;20023;-78
2022/09/06 03:08:41;;;;;;;9.35;4.72;;;;;;;12.63;100.00;98281.47;5091643;27;20083;-79
2022/09/06 03:11:06;;;;;;;6.70;4.65;;;;;;;12.59;100.00;98293.31;5122361;27;20024;-79
2022/09/06 03:13:32;;;;;;;7.43;4.68;;;;;;;12.60;100.00;98287.00;5075930;28;20032;-78
2022/09/06 03:15:58;;;;;;;7.97;4.47;;;;;;;12.67;100.00;98296.44;5102025;27;20041;-79
2022/09/06 03:18:25;;;;;;;5.93;4.57;;;;;;;12.68;100.00;98299.03;5065837;27;20035;-78
2022/09/06 03:20:52;;;;;;;11.02;4.40;;;;;;;12.68;100.00;98295.47;5106606;28;20047;-79
2022/09/06 03:23:20;;;;;;;11.68;4.60;;;;;;;12.66;100.00;98308.13;5104317;27;20027;-79
2022/09/06 03:25:45;;;;;;;8.57;4.30;;;;;;;12.61;100.00;98294.13;5090329;27;20034;-79
2022/09/06 03:28:11;;;;;;;8.65;4.07;;;;;;;12.57;100.00;98295.25;5122327;27;20027;-79
2022/09/06 03:30:38;;;;;;;7.68;4.40;;;;;;;12.60;100.00;98309.34;5108774;28;20042;-78
2022/09/06 03:33:04;;;;;;;7.78;4.30;;;;;;;12.64;100.00;98305.56;5078699;28;20406;-79
2022/09/06 03:35:29;;;;;;;11.57;4.93;;;;;;;12.66;100.00;98303.63;5093249;28;20027;-80
2022/09/06 03:37:55;;;;;;;8.95;4.75;;;;;;;12.75;100.00;98318.31;5102324;28;20663;-79
2022/09/06 03:40:21;;;;;;;6.57;4.13;;;;;;;12.77;100.00;98327.16;5111260;28;20039;-78
2022/09/06 03:42:46;;;;;;;7.47;4.50;;;;;;;12.78;100.00;98323.53;5099107;27;20035;-79
2022/09/06 03:45:12;;;;;;;6.43;4.55;;;;;;;12.84;100.00;98321.34;5103588;27;20092;-79
2022/09/06 03:47:37;;;;;;;10.15;4.70;;;;;;;12.81;100.00;98323.34;5110125;28;20034;-79
2022/09/06 03:50:04;;;;;;;8.90;4.50;;;;;;;12.85;100.00;98330.28;5111882;27;20072;-79
2022/09/06 03:52:30;;;;;;;8.85;4.55;;;;;;;12.83;100.00;98330.34;5110292;28;20057;-79
2022/09/06 03:54:55;;;;;;;9.82;4.65;;;;;;;12.72;100.00;98324.75;5090767;28;20027;-80
2022/09/06 03:57:21;;;;;;;10.43;4.65;;;;;;;12.67;100.00;98323.28;5121830;27;20035;-80
2022/09/06 03:59:47;;;;;;;13.23;5.25;;;;;;;12.79;100.00;98334.19;5103072;28;20027;-80
2022/09/06 04:02:12;;;;;;;8.05;5.03;;;;;;;12.86;100.00;98337.34;5104162;28;20042;-81
2022/09/06 04:04:38;;;;;;;10.57;5.45;;;;;;;12.97;100.00;98345.66;5096123;28;20023;-80
2022/09/06 04:07:03;;;;;;;21.08;5.53;;;;;;;12.93;100.00;98352.16;5108379;27;20470;-80
2022/09/06 04:09:29;;;;;;;11.88;5.13;;;;;;;12.97;100.00;98354.59;5102094;27;20470;-80
2022/09/06 04:11:55;;;;;;;15.18;6.47;;;;;;;13.01;100.00;98349.91;5106701;27;20027;-80
2022/09/06 04:14:20;;;;;;;18.42;6.72;;;;;;;13.01;100.00;98345.38;5106789;27;20106;-81
2022/09/06 04:16:46;;;;;;;18.38;6.38;;;;;;;13.03;100.00;98340.81;5132567;27;20058;-80
2022/09/06 04:19:11;;;;;;;19.63;7.00;;;;;;;13.06;100.00;98339.75;5104333;27;20535;-80
2022/09/06 04:21:37;;;;;;;16.67;6.78;;;;;;;13.15;100.00;98347.28;5094722;27;20051;-79
2022/09/06 04:24:03;;;;;;;7.43;4.75;;;;;;;13.03;100.00;98346.16;5110150;27;20038;-80
2022/09/06 04:26:29;;;;;;;21.23;4.20;;;;;;;13.05;100.00;98348.75;5093608;28;20035;-79
2022/09/06 04:28:54;;;;;;;6.57;4.82;;;;;;;13.10;100.00;98346.72;5089969;28;20034;-79
2022/09/06 04:31:20;;;;;;;12.65;5.05;;;;;;;13.04;100.00;98336.28;5107107;27;21156;-79
2022/09/06 04:33:46;;;;;;;8.02;4.78;;;;;;;12.96;100.00;98322.44;5094381;28;20040;-79
2022/09/06 04:36:11;;;;;;;7.40;5.05;;;;;;;13.11;100.00;98335.00;5111442;27;20079;-79
2022/09/06 04:38:42;;;;;;;17.83;5.57;;;;;;;13.13;100.00;98334.91;5120306;27;20023;-79
2022/09/06 04:41:13;;;;;;;14.38;5.45;;;;;;;13.21;100.00;98344.25;5106550;28;20062;-79
2022/09/06 04:43:38;;;;;;;8.85;6.18;;;;;;;13.22;100.00;98335.22;5096796;27;20018;-79
2022/09/06 04:46:06;;;;;;;11.88;5.70;;;;;;;13.26;100.00;98336.75;5101524;28;20027;-79
2022/09/06 04:48:32;;;;;;;20.70;6.90;;;;;;;13.30;100.00;98330.25;5098346;28;20023;-80
2022/09/06 04:50:57;;;;;;;25.08;10.18;;;;;;;13.45;100.00;98328.44;5105570;27;20019;-79
2022/09/06 04:53:23;;;;;;;20.75;9.85;;;;;;;13.43;100.00;98317.81;5099530;28;20035;-80
2022/09/06 04:55:48;;;;;;;15.02;7.70;;;;;;;13.45;100.00;98321.25;5105163;28;20031;-79
2022/09/06 04:58:14;;;;;;;23.42;10.55;;;;;;;13.58;100.00;98318.69;5107859;28;20405;-80
2022/09/06 05:00:43;;;;;;;18.25;7.88;;;;;;;13.66;100.00;98312.84;5094688;28;20472;-78
2022/09/06 05:03:09;;;;;;;13.18;7.80;;;;;;;13.74;100.00;98313.22;5118534;28;20026;-80
2022/09/06 05:05:34;;;;;;;13.40;7.22;;;;;;;13.73;100.00;98303.41;5101224;28;20023;-80
2022/09/06 05:08:00;;;;;;;17.83;7.30;;;;;;;13.80;100.00;98307.47;5103016;28;20045;-80
2022/09/06 05:10:25;;;;;;;14.88;7.35;;;;;;;13.89;100.00;98307.75;5118284;28;20031;-80
2022/09/06 05:12:52;;;;;;;18.77;9.13;;;;;;;14.17;100.00;98314.94;5120291;28;20026;-79
2022/09/06 05:15:19;;;;;;;26.92;8.35;;;;;;;14.34;100.00;98309.34;5113313;28;20026;-79
2022/09/06 05:17:44;;;;;;;17.67;8.80;;;;;;;14.42;100.00;98307.03;5092833;28;20050;-80
2022/09/06 05:20:10;;;;;;;13.73;7.78;;;;;;;14.42;100.00;98304.34;5085282;28;20491;-79
2022/09/06 05:22:36;;;;;;;17.73;7.65;;;;;;;14.37;100.00;98292.13;5097457;28;20031;-79
2022/09/06 05:25:02;;;;;;;19.38;8.05;;;;;;;14.33;100.00;98291.50;5114915;28;20027;-78
2022/09/06 05:27:28;;;;;;;20.45;8.98;;;;;;;14.44;100.00;98291.63;5101504;27;20405;-79
2022/09/06 05:29:53;;;;;;;20.88;7.53;;;;;;;14.58;100.00;98288.88;5119476;27;20080;-79
2022/09/06 05:32:19;;;;;;;23.35;9.32;;;;;;;14.85;100.00;98298.81;5101790;27;20016;-79
2022/09/06 05:34:44;;;;;;;30.60;15.52;;;;;;;16.02;100.00;98313.09;5115190;28;20038;-79
2022/09/06 05:37:10;;;;;;;16.17;7.63;;;;;;;17.78;100.00;98284.41;5114269;28;20023;-80
2022/09/06 05:39:35;;;;;;;12.15;6.72;;;;;;;19.26;100.00;98263.03;5115310;27;20023;-80
2022/09/06 05:42:17;;;;;;;11.00;6.50;;;;;;;20.87;87.36;98223.16;5114210;28;20031;-79
2022/09/06 05:44:42;;;;;;;27.08;14.80;;;;;;;22.26;78.32;98199.78;5089454;28;20471;-80
2022/09/06 05:47:08;;;;;;;11.93;5.40;;;;;;;23.16;71.66;98165.94;5122125;27;20080;-80
2022/09/06 05:49:33;;;;;;;9.57;5.72;;;;;;;23.49;68.93;98142.53;5115185;27;20079;-79
2022/09/06 05:51:59;;;;;;;16.55;5.20;;;;;;;23.95;66.26;98119.38;5113943;28;20024;-79
2022/09/06 05:54:25;;;;;;;11.55;5.32;;;;;;;24.56;63.08;98107.25;5117640;27;20062;-80
2022/09/06 05:56:50;;;;;;;9.38;6.03;;;;;;;25.00;61.01;98103.22;5101154;27;20123;-79
2022/09/06 05:59:16;;;;;;;10.70;4.90;;;;;;;25.68;59.45;98075.38;5097539;28;20046;-78
2022/09/06 06:01:51;;;;;;;9.15;4.95;;;;;;;25.54;59.01;98079.69;5118036;27;20059;-78
2022/09/06 06:04:17;;;;;;;6.47;4.65;;;;;;;25.90;57.33;98068.28;5109660;27;20027;-79
2022/09/06 06:06:44;;;;;;;10.02;5.13;;;;;;;26.25;56.46;98060.38;5096942;28;20027;-80
2022/09/06 06:09:11;;;;;;;47.53;28.48;;;;;;;25.81;57.53;98048.22;5114844;27;20055;-80
2022/09/06 06:11:36;;;;;;;11.63;5.30;;;;;;;26.56;55.77;98048.50;5098444;27;20054;-81
2022/09/06 06:14:03;;;;;;;6.22;4.20;;;;;;;27.05;53.57;98033.34;5115055;27;20464;-79
2022/09/06 06:16:28;;;;;;;9.55;4.93;;;;;;;28.13;51.29;98034.53;5100368;27;20026;-79
2022/09/06 06:18:54;;;;;;;14.55;5.15;;;;;;;28.80;49.59;98021.28;5126792;27;20099;-79
2022/09/06 06:21:21;;;;;;;24.45;9.45;;;;;;;29.36;47.95;98013.94;5113597;28;20591;-80
2022/09/06 06:23:52;;;;;;;8.82;5.50;;;;;;;29.86;46.12;98001.72;5096484;28;20427;-80
2022/09/06 06:26:18;;;;;;;11.18;6.65;;;;;;;29.77;46.32;97996.56;5116855;27;20023;-80
2022/09/06 06:28:44;;;;;;;7.88;4.53;;;;;;;29.14;47.15;98000.38;5116083;27;20035;-80
2022/09/06 06:31:10;;;;;;;9.07;4.32;;;;;;;28.94;47.62;98005.75;5116827;27;20478;-80
2022/09/06 06:33:37;;;;;;;13.75;5.63;;;;;;;29.05;47.27;97999.66;5114788;27;20023;-80
2022/09/06 06:36:05;;;;;;;8.18;4.50;;;;;;;30.23;45.30;98003.13;5096325;28;20023;-79
2022/09/06 06:38:38;;;;;;;8.32;5.18;;;;;;;31.58;42.44;97993.47;5096856;28;20095;-79
2022/09/06 06:41:05;;;;;;;10.68;5.55;;;;;;;31.21;42.58;97988.63;5116733;27;20027;-79
2022/09/06 06:43:37;;;;;;;11.48;6.18;;;;;;;31.38;42.46;97986.25;5116698;27;20410;-80
2022/09/06 06:46:13;;;;;;;11.70;4.90;;;;;;;31.60;42.05;97983.03;5099762;27;20524;-79
2022/09/06 06:48:40;;;;;;;8.40;5.32;;;;;;;31.65;42.01;97983.25;5099299;27;20031;-78
2022/09/06 06:51:09;;;;;;;9.80;6.03;;;;;;;32.29;41.11;97979.56;5112799;28;20451;-79
2022/09/06 06:53:35;;;;;;;6.90;4.60;;;;;;;31.95;40.73;97974.38;5113717;27;20024;-80
2022/09/06 06:56:01;;;;;;;8.65;4.32;;;;;;;32.27;40.77;97980.88;5134787;27;20023;-80
2022/09/06 06:58:26;;;;;;;6.55;3.88;;;;;;;32.50;39.69;97968.16;5116021;27;20027;-79
2022/09/06 07:00:52;;;;;;;6.10;4.60;;;;;;;32.41;40.13;97969.47;5115919;27;20059;-80
2022/09/06 07:03:17;;;;;;;8.57;4.88;;;;;;;32.07;40.62;97961.59;5114533;27;20027;-80
2022/09/06 07:05:46;;;;;;;12.85;5.07;;;;;;;32.37;39.91;97959.06;5113861;28;20030;-82
2022/09/06 07:08:12;;;;;;;7.00;5.18;;;;;;;31.25;41.45;97962.25;5097021;27;20436;-81
2022/09/06 07:10:37;;;;;;;12.10;4.88;;;;;;;31.39;41.68;97979.66;5115043;27;20043;-80
2022/09/06 07:13:03;;;;;;;14.15;10.02;;;;;;;32.05;40.72;97972.03;5112073;28;20102;-81
2022/09/06 07:15:29;;;;;;;6.15;3.85;;;;;;;31.33;41.69;97972.22;5111647;28;20027;-80
2022/09/06 07:17:55;;;;;;;11.25;4.55;;;;;;;32.08;41.17;97966.91;5112078;28;20030;-80
2022/09/06 07:20:21;;;;;;;8.77;3.92;;;;;;;31.97;41.03;97963.94;5094662;28;20491;-81
2022/09/06 07:23:04;;;;;;;7.85;4.45;;;;;;;31.26;42.48;97966.69;5111587;28;20514;-79
2022/09/06 07:25:30;;;;;;;6.82;3.70;;;;;;;30.84;43.46;97958.84;5112163;28;20027;-80
2022/09/06 07:27:58;;;;;;;5.35;3.30;;;;;;;31.23;42.49;97972.66;5097849;27;20026;-81
2022/09/06 07:30:23;;;;;;;4.05;3.05;;;;;;;31.80;41.68;97969.13;5113283;27;20486;-80
2022/09/06 07:32:49;;;;;;;9.60;2.80;;;;;;;31.76;41.43;97975.31;5094362;28;20020;-79
2022/09/06 07:35:15;;;;;;;5.90;3.70;;;;;;;32.34;41.50;97971.44;5114872;27;20545;-79
2022/09/06 07:37:40;;;;;;;4.13;3.03;;;;;;;33.48;38.84;97979.50;5111616;28;20394;-80
2022/09/06 07:40:06;;;;;;;3.85;2.90;;;;;;;34.15;37.72;97967.41;5111316;28;20023;-80
2022/09/06 07:42:32;;;;;;;9.48;4.20;;;;;;;34.38;37.80;97970.31;5111636;27;20039;-79
2022/09/06 07:44:57;;;;;;;9.85;3.13;;;;;;;33.58;37.76;97958.47;5114629;27;20034;-79
2022/09/06 07:47:23;;;;;;;6.32;4.05;;;;;;;33.94;37.50;97962.34;5114149;27;20035;-79
2022/09/06 07:49:48;;;;;;;4.65;3.30;;;;;;;33.32;38.01;97947.66;5111181;28;20055;-80
2022/09/06 07:52:14;;;;;;;4.03;2.70;;;;;;;33.35;38.36;97963.00;5093623;28;20089;-79
2022/09/06 07:54:39;;;;;;;2.72;2.53;;;;;;;34.14;37.46;97971.31;5114698;27;20046;-80
2022/09/06 07:57:05;;;;;;;3.45;2.70;;;;;;;33.64;37.50;97946.47;5097647;27;20493;-79
2022/09/06 07:59:31;;;;;;;7.03;3.25;;;;;;;33.97;37.68;97961.88;5114504;27;20038;-81
2022/09/06 08:01:57;;;;;;;4.43;3.40;;;;;;;34.84;35.89;97959.38;5114326;27;20035;-79
2022/09/06 08:04:22;;;;;;;5.72;3.60;;;;;;;35.25;34.49;97955.69;5097118;27;20037;-79
2022/09/06 08:06:49;;;;;;;3.95;3.30;;;;;;;35.60;33.90;97954.81;5096983;27;20027;-80
2022/09/06 08:09:15;;;;;;;4.82;3.22;;;;;;;35.37;33.76;97941.78;5111115;28;20418;-80
2022/09/06 08:11:40;;;;;;;6.15;2.95;;;;;;;35.46;33.67;97951.44;5110486;28;20107;-79
2022/09/06 08:14:08;;;;;;;3.78;3.15;;;;;;;35.41;33.29;97942.94;5094672;27;20035;-80
2022/09/06 08:16:35;;;;;;;5.15;3.15;;;;;;;35.43;33.33;97940.78;5112823;27;20466;-80
2022/09/06 08:19:03;;;;;;;3.75;3.40;;;;;;;35.32;34.11;97941.63;5114201;27;20114;-80
2022/09/06 08:21:31;;;;;;;8.40;3.40;;;;;;;35.87;33.02;97931.75;5091918;27;20082;-81
2022/09/06 08:24:02;;;;;;;4.30;3.17;;;;;;;35.58;33.71;97927.25;5114480;27;20498;-81
2022/09/06 08:26:28;;;;;;;3.15;2.50;;;;;;;34.77;34.37;97930.81;5081862;28;20498;-78
2022/09/06 08:28:59;;;;;;;3.40;2.60;;;;;;;35.78;33.10;97938.81;5093461;27;20027;-81
2022/09/06 08:31:25;;;;;;;4.78;3.40;;;;;;;36.34;32.11;97926.03;5105601;27;20033;-81
2022/09/06 08:33:51;;;;;;;3.65;2.83;;;;;;;35.68;32.63;97926.63;5109684;27;20020;-81
2022/09/06 08:36:17;;;;;;;5.10;2.70;;;;;;;35.57;33.38;97927.44;5076623;27;20118;-81
2022/09/06 08:38:42;;;;;;;5.00;2.97;;;;;;;36.22;32.99;97928.88;5102532;27;20139;-80
2022/09/06 08:41:13;;;;;;;4.65;2.67;;;;;;;36.48;32.32;97927.44;5103174;27;20023;-80
2022/09/06 08:43:45;;;;;;;4.28;2.83;;;;;;;37.25;30.96;97919.31;5128528;27;20496;-81
2022/09/06 08:46:11;;;;;;;2.55;2.35;;;;;;;36.68;31.47;97899.94;5099066;27;20019;-81
2022/09/06 08:48:38;;;;;;;4.35;3.30;;;;;;;36.62;31.72;97912.09;5134261;27;20079;-81
2022/09/06 08:51:13;;;;;;;2.50;2.30;;;;;;;35.95;32.38;97899.03;5081283;27;20027;-80
2022/09/06 08:53:45;;;;;;;6.40;2.80;;;;;;;36.21;31.99;97904.88;5148845;27;20046;-79
2022/09/06 08:56:19;;;;;;;3.13;2.47;;;;;;;36.26;32.32;97901.38;5092298;27;20380;-80
2022/09/06 08:59:05;;;;;;;3.30;2.47;;;;;;;37.40;30.14;97908.38;5123442;27;20027;-81
2022/09/06 09:02:02;;;;;;;4.57;3.13;;;;;;;38.99;29.49;97915.31;5118215;27;20423;-81
2022/09/06 09:04:28;;;;;;;2.45;2.22;;;;;;;38.72;28.28;97889.31;5120807;27;20023;-81
2022/09/06 09:06:58;;;;;;;4.03;2.20;;;;;;;38.12;28.58;97877.50;5098120;27;20023;-82
2022/09/06 09:09:24;;;;;;;4.20;2.50;;;;;;;36.93;29.83;97880.84;5098670;27;20490;-83
2022/09/06 09:11:50;;;;;;;2.20;2.00;;;;;;;37.22;29.16;97864.00;5124935;27;20449;-82
2022/09/06 09:14:29;;;;;;;3.08;2.33;;;;;;;37.46;28.93;97868.28;5111859;27;20035;-82
2022/09/06 09:17:00;;;;;;;2.22;2.03;;;;;;;37.61;28.28;97862.03;5124582;27;20506;-82
2022/09/06 09:19:26;;;;;;;3.85;2.10;;;;;;;38.55;27.88;97871.81;5104496;27;20026;-82
2022/09/06 09:21:51;;;;;;;4.63;1.98;;;;;;;38.93;27.32;97862.38;5105195;27;20127;-81
2022/09/06 09:24:17;;;;;;;2.40;2.20;;;;;;;37.79;27.97;97840.22;5091058;27;20039;-82
2022/09/06 09:27:03;;;;;;;2.67;2.25;;;;;;;38.94;27.33;97858.47;5107957;28;20088;-81
2022/09/06 09:29:29;;;;;;;3.17;2.00;;;;;;;37.95;27.85;97825.34;5096517;27;20497;-81
2022/09/06 09:31:55;;;;;;;3.45;2.40;;;;;;;38.31;27.95;97837.72;5115109;28;20031;-82
2022/09/06 09:34:28;;;;;;;3.92;2.42;;;;;;;38.99;27.31;97856.53;5092627;28;20046;-82
2022/09/06 09:37:16;;;;;;;2.40;2.20;;;;;;;37.82;28.03;97834.09;5109471;28;20024;-82
2022/09/06 09:39:42;;;;;;;5.53;2.75;;;;;;;38.19;27.05;97836.19;5101634;27;20032;-82
2022/09/06 09:42:10;;;;;;;2.88;2.35;;;;;;;36.68;28.49;97807.91;5109024;27;20437;-83
2022/09/06 09:44:42;;;;;;;2.90;2.35;;;;;;;35.56;30.35;97811.63;5117622;27;20027;-81
2022/09/06 09:47:29;;;;;;;4.13;2.50;;;;;;;35.47;29.62;97818.66;5096413;27;20142;-82
2022/09/06 09:49:55;;;;;;;3.30;3.00;;;;;;;37.18;29.17;97837.69;5081440;28;20033;-81
2022/09/06 09:52:26;;;;;;;3.05;2.40;;;;;;;37.59;27.78;97823.22;5085710;27;20023;-81
2022/09/06 09:54:54;;;;;;;3.43;2.10;;;;;;;37.50;28.11;97810.81;5111266;28;20027;-81
2022/09/06 09:57:21;;;;;;;3.22;2.50;;;;;;;37.92;27.71;97820.28;5094343;27;20030;-82
2022/09/06 09:59:51;;;;;;;2.45;2.25;;;;;;;37.98;27.46;97822.03;5094834;28;20027;-81
2022/09/06 10:02:34;;;;;;;3.45;2.65;;;;;;;38.24;28.06;97825.06;5092868;27;20031;-82
2022/09/06 10:05:01;;;;;;;2.88;2.40;;;;;;;38.10;27.62;97821.00;5093610;28;20027;-82
2022/09/06 10:07:27;;;;;;;4.80;2.15;;;;;;;36.49;28.63;97789.69;5081625;27;20027;-82
2022/09/06 10:09:55;;;;;;;7.38;2.42;;;;;;;37.37;28.37;97814.81;5087121;27;20085;-80
2022/09/06 10:12:33;;;;;;;2.40;2.20;;;;;;;37.54;28.15;97814.75;5125435;27;20039;-80
2022/09/06 10:14:59;;;;;;;3.75;2.10;;;;;;;38.41;27.59;97821.06;5086810;28;20061;-81
2022/09/06 10:17:30;;;;;;;3.92;2.55;;;;;;;38.86;26.61;97801.03;5096371;28;20414;-81
2022/09/06 10:19:59;;;;;;;2.55;2.33;;;;;;;39.27;25.86;97798.50;5128734;27;20058;-82
2022/09/06 10:22:31;;;;;;;4.25;2.30;;;;;;;38.61;27.35;97786.81;5117041;27;20031;-82
2022/09/06 10:25:25;;;;;;;3.42;2.38;;;;;;;38.92;26.27;97788.75;5085492;28;20031;-81
2022/09/06 10:28:09;;;;;;;2.40;2.20;;;;;;;39.25;26.54;97787.59;5108722;28;20034;-81
2022/09/06 10:30:40;;;;;;;4.40;2.58;;;;;;;38.97;26.36;97776.75;5114296;28;20023;-82
2022/09/06 10:33:37;;;;;;;3.03;2.08;;;;;;;39.78;26.05;97782.78;5094153;27;20467;-81
2022/09/06 10:36:02;;;;;;;5.70;2.72;;;;;;;40.11;25.71;97784.28;5107758;27;20619;-82
2022/09/06 10:38:45;;;;;;;4.70;3.13;;;;;;;39.78;26.00;97757.56;5099317;27;20118;-82
2022/09/06 10:41:42;;;;;;;6.65;3.63;;;;;;;39.23;25.79;97764.59;5134819;27;20055;-82
2022/09/06 10:44:42;;;;;;;4.25;2.67;;;;;;;39.95;25.72;97781.41;5123730;27;20426;-83
2022/09/06 10:47:12;;;;;;;3.63;3.30;;;;;;;39.78;25.09;97758.38;5109491;28;20045;-83
2022/09/06 10:49:41;;;;;;;2.70;2.10;;;;;;;37.07;27.84;97741.81;5115018;27;20594;-82
2022/09/06 10:52:10;;;;;;;2.20;2.00;;;;;;;35.98;28.80;97742.53;5109987;28;20015;-81
2022/09/06 10:54:37;;;;;;;2.42;2.22;;;;;;;34.31;31.35;97756.44;5089117;27;20068;-84
2022/09/06 10:57:28;;;;;;;2.20;1.98;;;;;;;32.90;33.52;97765.47;5098354;27;20023;-83
2022/09/06 11:00:03;;;;;;;2.35;1.90;;;;;;;34.65;29.67;97768.69;5088415;27;20629;-83
2022/09/06 11:02:49;;;;;;;2.58;2.22;;;;;;;35.98;28.68;97770.41;5094123;28;20031;-83
2022/09/06 11:05:28;;;;;;;2.10;1.90;;;;;;;37.45;26.99;97778.06;5099828;28;20073;-84
2022/09/06 11:08:07;;;;;;;2.50;1.90;;;;;;;37.60;27.65;97760.63;5105269;28;20027;-84
2022/09/06 11:10:36;;;;;;;2.75;2.05;;;;;;;35.68;30.40;97726.97;5094387;27;20084;-84
2022/09/06 11:13:11;;;;;;;2.55;2.10;;;;;;;34.63;31.14;97751.41;5090329;27;20024;-83
2022/09/06 11:16:00;;;;;;;4.75;2.20;;;;;;;34.33;31.97;97757.03;5111414;27;20031;-83
2022/09/06 11:18:32;;;;;;;6.10;2.40;;;;;;;33.83;32.56;97761.28;5091792;28;20031;-84
2022/09/06 11:21:24;;;;;;;9.82;4.93;;;;;;;33.33;33.52;97765.41;5108080;27;20046;-83
2022/09/06 11:24:07;;;;;;;35.30;14.95;;;;;;;32.57;33.99;97755.63;5070678;27;20046;-84
2022/09/06 11:27:02;;;;;;;7.15;3.40;;;;;;;32.03;35.17;97775.66;5096493;27;20499;-85
2022/09/06 11:29:29;;;;;;;2.55;2.22;;;;;;;31.22;36.13;97765.50;5084797;28;20055;-83
2022/09/06 11:31:57;;;;;;;2.35;2.15;;;;;;;30.48;36.66;97752.13;5108027;27;20050;-83
2022/09/06 11:34:30;;;;;;;2.30;2.10;;;;;;;30.84;36.29;97777.31;5088015;28;20080;-83
2022/09/06 11:37:06;;;;;;;4.38;3.80;;;;;;;30.80;36.84;97770.50;5078596;28;20035;-83
2022/09/06 11:39:41;;;;;;;7.47;2.80;;;;;;;31.30;37.27;97790.13;5086952;27;20037;-83